sensor_id;sensor_type;location;lat;lon;timestamp;temperature;humidity
65044;DHT22;51617;48.158;16.464;2023-10-08T00:02:18;21.80;58.60
65044;DHT22;51617;48.158;16.464;2023-10-08T00:04:50;21.90;58.20
65044;DHT22;51617;48.158;16.464;2023-10-08T00:07:17;21.90;58.30
65044;DHT22;51617;48.158;16.464;2023-10-08T00:09:47;21.80;58.60
65044;DHT22;51617;48.158;16.464;2023-10-08T00:12:12;21.80;58.60
65044;DHT22;51617;48.158;16.464;2023-10-08T00:14:38;21.80;58.80
65044;DHT22;51617;48.158;16.464;2023-10-08T00:17:10;21.80;58.90
65044;DHT22;51617;48.158;16.464;2023-10-08T00:19:36;21.80;58.90
65044;DHT22;51617;48.158;16.464;2023-10-08T00:22:03;21.80;58.90
65044;DHT22;51617;48.158;16.464;2023-10-08T00:24:32;21.80;58.80
65044;DHT22;51617;48.158;16.464;2023-10-08T00:26:59;21.90;59.00
65044;DHT22;51617;48.158;16.464;2023-10-08T00:29:25;21.70;59.10
65044;DHT22;51617;48.158;16.464;2023-10-08T00:31:51;21.70;59.50
65044;DHT22;51617;48.158;16.464;2023-10-08T00:34:17;21.80;59.50
65044;DHT22;51617;48.158;16.464;2023-10-08T00:36:46;21.70;59.60
65044;DHT22;51617;48.158;16.464;2023-10-08T00:39:13;21.80;59.60
65044;DHT22;51617;48.158;16.464;2023-10-08T00:41:40;21.80;59.70
65044;DHT22;51617;48.158;16.464;2023-10-08T00:44:08;21.90;59.60
65044;DHT22;51617;48.158;16.464;2023-10-08T00:46:33;21.90;59.50
65044;DHT22;51617;48.158;16.464;2023-10-08T00:49:07;21.90;59.50
65044;DHT22;51617;48.158;16.464;2023-10-08T00:51:54;21.90;59.50
65044;DHT22;51617;48.158;16.464;2023-10-08T00:54:26;22.00;59.50
65044;DHT22;51617;48.158;16.464;2023-10-08T00:56:58;21.90;59.50
65044;DHT22;51617;48.158;16.464;2023-10-08T00:59:24;22.00;59.20
65044;DHT22;51617;48.158;16.464;2023-10-08T01:01:58;22.00;59.20
65044;DHT22;51617;48.158;16.464;2023-10-08T01:04:29;22.00;59.80
65044;DHT22;51617;48.158;16.464;2023-10-08T01:06:59;22.00;59.00
65044;DHT22;51617;48.158;16.464;2023-10-08T01:09:26;22.00;59.00
65044;DHT22;51617;48.158;16.464;2023-10-08T01:14:52;22.00;59.20
65044;DHT22;51617;48.158;16.464;2023-10-08T01:17:28;22.00;59.60
65044;DHT22;51617;48.158;16.464;2023-10-08T01:19:57;22.00;59.10
65044;DHT22;51617;48.158;16.464;2023-10-08T01:22:43;22.00;59.10
65044;DHT22;51617;48.158;16.464;2023-10-08T01:25:08;22.00;59.20
65044;DHT22;51617;48.158;16.464;2023-10-08T01:27:35;22.00;59.20
65044;DHT22;51617;48.158;16.464;2023-10-08T01:30:02;21.90;59.50
65044;DHT22;51617;48.158;16.464;2023-10-08T01:32:46;21.90;59.70
65044;DHT22;51617;48.158;16.464;2023-10-08T01:35:12;21.90;59.60
65044;DHT22;51617;48.158;16.464;2023-10-08T01:37:51;21.90;59.70
65044;DHT22;51617;48.158;16.464;2023-10-08T01:40:20;21.90;59.60
65044;DHT22;51617;48.158;16.464;2023-10-08T01:42:46;21.90;59.90
65044;DHT22;51617;48.158;16.464;2023-10-08T01:45:12;21.90;60.00
65044;DHT22;51617;48.158;16.464;2023-10-08T01:47:45;21.80;60.00
65044;DHT22;51617;48.158;16.464;2023-10-08T01:50:10;21.90;60.30
65044;DHT22;51617;48.158;16.464;2023-10-08T01:52:53;21.80;60.30
65044;DHT22;51617;48.158;16.464;2023-10-08T01:55:18;21.80;60.40
65044;DHT22;51617;48.158;16.464;2023-10-08T01:57:49;21.90;60.40
65044;DHT22;51617;48.158;16.464;2023-10-08T02:00:16;21.80;60.40
65044;DHT22;51617;48.158;16.464;2023-10-08T02:02:51;21.90;60.40
65044;DHT22;51617;48.158;16.464;2023-10-08T02:05:17;21.80;60.50
65044;DHT22;51617;48.158;16.464;2023-10-08T02:07:47;21.80;60.30
65044;DHT22;51617;48.158;16.464;2023-10-08T02:10:13;21.80;60.40
65044;DHT22;51617;48.158;16.464;2023-10-08T02:12:41;21.70;60.40
65044;DHT22;51617;48.158;16.464;2023-10-08T02:15:07;21.70;60.30
65044;DHT22;51617;48.158;16.464;2023-10-08T02:17:33;21.70;60.30
65044;DHT22;51617;48.158;16.464;2023-10-08T02:19:59;21.70;60.40
65044;DHT22;51617;48.158;16.464;2023-10-08T02:22:25;21.70;60.50
65044;DHT22;51617;48.158;16.464;2023-10-08T02:24:50;21.70;60.40
65044;DHT22;51617;48.158;16.464;2023-10-08T02:27:18;21.60;60.60
65044;DHT22;51617;48.158;16.464;2023-10-08T02:29:44;21.60;60.60
65044;DHT22;51617;48.158;16.464;2023-10-08T02:32:10;21.60;60.80
65044;DHT22;51617;48.158;16.464;2023-10-08T02:34:35;21.50;60.90
65044;DHT22;51617;48.158;16.464;2023-10-08T02:37:01;21.50;61.10
65044;DHT22;51617;48.158;16.464;2023-10-08T02:39:28;21.50;61.10
65044;DHT22;51617;48.158;16.464;2023-10-08T02:41:56;21.50;61.20
65044;DHT22;51617;48.158;16.464;2023-10-08T02:44:22;21.50;61.40
65044;DHT22;51617;48.158;16.464;2023-10-08T02:46:48;21.50;61.50
65044;DHT22;51617;48.158;16.464;2023-10-08T02:49:17;21.50;61.70
65044;DHT22;51617;48.158;16.464;2023-10-08T02:51:48;21.50;61.90
65044;DHT22;51617;48.158;16.464;2023-10-08T02:54:16;21.40;62.00
65044;DHT22;51617;48.158;16.464;2023-10-08T02:56:43;21.40;62.20
65044;DHT22;51617;48.158;16.464;2023-10-08T02:59:10;21.40;62.30
65044;DHT22;51617;48.158;16.464;2023-10-08T03:01:38;21.30;62.40
65044;DHT22;51617;48.158;16.464;2023-10-08T03:04:05;21.30;62.60
65044;DHT22;51617;48.158;16.464;2023-10-08T03:06:40;21.30;62.80
65044;DHT22;51617;48.158;16.464;2023-10-08T03:09:06;21.40;62.80
65044;DHT22;51617;48.158;16.464;2023-10-08T03:11:33;21.30;62.90
65044;DHT22;51617;48.158;16.464;2023-10-08T03:14:01;21.40;63.10
65044;DHT22;51617;48.158;16.464;2023-10-08T03:16:26;21.40;63.20
65044;DHT22;51617;48.158;16.464;2023-10-08T03:19:02;21.40;63.30
65044;DHT22;51617;48.158;16.464;2023-10-08T03:21:31;21.40;63.50
65044;DHT22;51617;48.158;16.464;2023-10-08T03:24:02;21.30;63.70
65044;DHT22;51617;48.158;16.464;2023-10-08T03:26:37;21.40;63.90
65044;DHT22;51617;48.158;16.464;2023-10-08T03:29:04;21.40;64.00
65044;DHT22;51617;48.158;16.464;2023-10-08T03:31:41;21.30;64.10
65044;DHT22;51617;48.158;16.464;2023-10-08T03:34:16;21.40;64.30
65044;DHT22;51617;48.158;16.464;2023-10-08T03:36:44;21.40;64.30
65044;DHT22;51617;48.158;16.464;2023-10-08T03:39:16;21.40;64.40
65044;DHT22;51617;48.158;16.464;2023-10-08T03:41:43;21.40;64.40
65044;DHT22;51617;48.158;16.464;2023-10-08T03:44:31;21.30;64.50
65044;DHT22;51617;48.158;16.464;2023-10-08T03:46:57;21.40;64.60
65044;DHT22;51617;48.158;16.464;2023-10-08T03:49:22;21.30;64.80
65044;DHT22;51617;48.158;16.464;2023-10-08T03:51:48;21.30;64.80
65044;DHT22;51617;48.158;16.464;2023-10-08T03:54:20;21.30;64.90
65044;DHT22;51617;48.158;16.464;2023-10-08T03:56:55;21.20;65.00
65044;DHT22;51617;48.158;16.464;2023-10-08T03:59:21;21.20;65.00
65044;DHT22;51617;48.158;16.464;2023-10-08T04:02:00;21.30;65.10
65044;DHT22;51617;48.158;16.464;2023-10-08T04:04:41;21.20;65.10
65044;DHT22;51617;48.158;16.464;2023-10-08T04:07:19;21.20;65.30
65044;DHT22;51617;48.158;16.464;2023-10-08T04:10:16;21.10;65.30
65044;DHT22;51617;48.158;16.464;2023-10-08T04:13:01;21.20;65.40
65044;DHT22;51617;48.158;16.464;2023-10-08T04:15:27;21.10;65.40
65044;DHT22;51617;48.158;16.464;2023-10-08T04:17:53;21.20;65.40
65044;DHT22;51617;48.158;16.464;2023-10-08T04:20:18;21.20;65.50
65044;DHT22;51617;48.158;16.464;2023-10-08T04:23:01;21.20;65.60
65044;DHT22;51617;48.158;16.464;2023-10-08T04:25:27;21.10;65.50
65044;DHT22;51617;48.158;16.464;2023-10-08T04:27:54;21.10;65.50
65044;DHT22;51617;48.158;16.464;2023-10-08T04:30:19;21.20;65.60
65044;DHT22;51617;48.158;16.464;2023-10-08T04:32:48;21.20;65.50
65044;DHT22;51617;48.158;16.464;2023-10-08T04:35:18;21.10;65.60
65044;DHT22;51617;48.158;16.464;2023-10-08T04:37:45;21.20;65.70
65044;DHT22;51617;48.158;16.464;2023-10-08T04:40:16;21.10;65.70
65044;DHT22;51617;48.158;16.464;2023-10-08T04:42:42;21.10;65.70
65044;DHT22;51617;48.158;16.464;2023-10-08T04:45:11;21.10;65.60
65044;DHT22;51617;48.158;16.464;2023-10-08T04:47:41;21.20;65.70
65044;DHT22;51617;48.158;16.464;2023-10-08T04:50:08;21.20;65.60
65044;DHT22;51617;48.158;16.464;2023-10-08T04:52:40;21.20;65.60
65044;DHT22;51617;48.158;16.464;2023-10-08T04:55:11;21.20;65.60
65044;DHT22;51617;48.158;16.464;2023-10-08T04:57:45;21.20;65.70
65044;DHT22;51617;48.158;16.464;2023-10-08T05:00:11;21.20;66.10
65044;DHT22;51617;48.158;16.464;2023-10-08T05:02:40;21.30;65.90
65044;DHT22;51617;48.158;16.464;2023-10-08T05:05:15;21.20;65.80
65044;DHT22;51617;48.158;16.464;2023-10-08T05:07:41;21.20;66.00
65044;DHT22;51617;48.158;16.464;2023-10-08T05:10:13;21.20;66.10
65044;DHT22;51617;48.158;16.464;2023-10-08T05:12:51;21.20;66.20
65044;DHT22;51617;48.158;16.464;2023-10-08T05:15:29;21.20;66.40
65044;DHT22;51617;48.158;16.464;2023-10-08T05:18:12;21.20;66.30
65044;DHT22;51617;48.158;16.464;2023-10-08T05:20:44;21.20;66.60
65044;DHT22;51617;48.158;16.464;2023-10-08T05:23:17;21.20;67.10
65044;DHT22;51617;48.158;16.464;2023-10-08T05:25:55;21.10;66.80
65044;DHT22;51617;48.158;16.464;2023-10-08T05:28:33;21.10;67.00
65044;DHT22;51617;48.158;16.464;2023-10-08T05:31:12;21.10;67.10
65044;DHT22;51617;48.158;16.464;2023-10-08T05:33:43;21.10;67.20
65044;DHT22;51617;48.158;16.464;2023-10-08T05:36:27;21.10;67.30
65044;DHT22;51617;48.158;16.464;2023-10-08T05:39:01;21.10;67.30
65044;DHT22;51617;48.158;16.464;2023-10-08T05:41:41;21.10;67.20
65044;DHT22;51617;48.158;16.464;2023-10-08T05:44:19;21.10;67.30
65044;DHT22;51617;48.158;16.464;2023-10-08T05:46:44;21.20;67.50
65044;DHT22;51617;48.158;16.464;2023-10-08T05:49:18;21.20;67.30
65044;DHT22;51617;48.158;16.464;2023-10-08T05:51:56;21.20;67.40
65044;DHT22;51617;48.158;16.464;2023-10-08T05:54:22;21.20;67.60
65044;DHT22;51617;48.158;16.464;2023-10-08T05:56:57;21.20;67.70
65044;DHT22;51617;48.158;16.464;2023-10-08T05:59:50;21.20;67.90
65044;DHT22;51617;48.158;16.464;2023-10-08T06:02:39;21.20;67.70
65044;DHT22;51617;48.158;16.464;2023-10-08T06:05:11;21.20;67.70
65044;DHT22;51617;48.158;16.464;2023-10-08T06:07:37;21.20;67.80
65044;DHT22;51617;48.158;16.464;2023-10-08T06:10:36;21.20;67.90
65044;DHT22;51617;48.158;16.464;2023-10-08T06:13:05;21.20;67.90
65044;DHT22;51617;48.158;16.464;2023-10-08T06:15:42;21.20;68.10
65044;DHT22;51617;48.158;16.464;2023-10-08T06:18:14;21.30;68.00
65044;DHT22;51617;48.158;16.464;2023-10-08T06:20:41;21.30;67.90
65044;DHT22;51617;48.158;16.464;2023-10-08T06:23:13;21.30;68.10
65044;DHT22;51617;48.158;16.464;2023-10-08T06:25:42;21.30;68.20
65044;DHT22;51617;48.158;16.464;2023-10-08T06:28:17;21.30;68.10
65044;DHT22;51617;48.158;16.464;2023-10-08T06:30:49;21.40;68.10
65044;DHT22;51617;48.158;16.464;2023-10-08T06:33:15;21.40;67.90
65044;DHT22;51617;48.158;16.464;2023-10-08T06:35:41;21.40;68.10
65044;DHT22;51617;48.158;16.464;2023-10-08T06:38:10;21.50;68.10
65044;DHT22;51617;48.158;16.464;2023-10-08T06:40:36;21.50;67.80
65044;DHT22;51617;48.158;16.464;2023-10-08T06:43:02;21.50;68.00
65044;DHT22;51617;48.158;16.464;2023-10-08T06:45:37;21.50;67.90
65044;DHT22;51617;48.158;16.464;2023-10-08T06:48:02;21.60;67.70
65044;DHT22;51617;48.158;16.464;2023-10-08T06:50:34;21.60;67.60
65044;DHT22;51617;48.158;16.464;2023-10-08T06:53:04;21.70;67.60
65044;DHT22;51617;48.158;16.464;2023-10-08T06:55:36;21.70;67.60
65044;DHT22;51617;48.158;16.464;2023-10-08T06:58:02;21.80;67.50
65044;DHT22;51617;48.158;16.464;2023-10-08T07:00:37;21.80;67.30
65044;DHT22;51617;48.158;16.464;2023-10-08T07:03:11;21.90;67.20
65044;DHT22;51617;48.158;16.464;2023-10-08T07:05:44;21.90;67.10
65044;DHT22;51617;48.158;16.464;2023-10-08T07:08:22;21.90;67.20
65044;DHT22;51617;48.158;16.464;2023-10-08T07:10:49;22.10;67.30
65044;DHT22;51617;48.158;16.464;2023-10-08T07:13:15;22.20;67.70
65044;DHT22;51617;48.158;16.464;2023-10-08T07:15:45;22.20;67.10
65044;DHT22;51617;48.158;16.464;2023-10-08T07:18:11;22.30;67.30
65044;DHT22;51617;48.158;16.464;2023-10-08T07:20:46;22.40;67.20
65044;DHT22;51617;48.158;16.464;2023-10-08T07:23:18;22.30;67.20
65044;DHT22;51617;48.158;16.464;2023-10-08T07:25:45;22.30;67.20
65044;DHT22;51617;48.158;16.464;2023-10-08T07:28:18;22.30;67.30
65044;DHT22;51617;48.158;16.464;2023-10-08T07:30:45;22.30;67.50
65044;DHT22;51617;48.158;16.464;2023-10-08T07:33:11;22.30;67.50
65044;DHT22;51617;48.158;16.464;2023-10-08T07:35:46;22.40;67.60
65044;DHT22;51617;48.158;16.464;2023-10-08T07:38:19;22.40;68.20
65044;DHT22;51617;48.158;16.464;2023-10-08T07:40:46;22.40;67.60
65044;DHT22;51617;48.158;16.464;2023-10-08T07:43:12;22.50;67.70
65044;DHT22;51617;48.158;16.464;2023-10-08T07:45:38;22.50;67.90
65044;DHT22;51617;48.158;16.464;2023-10-08T07:48:03;22.60;67.50
65044;DHT22;51617;48.158;16.464;2023-10-08T07:50:35;22.60;67.50
65044;DHT22;51617;48.158;16.464;2023-10-08T07:53:03;22.60;67.60
65044;DHT22;51617;48.158;16.464;2023-10-08T07:55:29;22.70;67.80
65044;DHT22;51617;48.158;16.464;2023-10-08T07:57:58;22.80;67.60
65044;DHT22;51617;48.158;16.464;2023-10-08T08:00:24;22.90;67.70
65044;DHT22;51617;48.158;16.464;2023-10-08T08:02:52;22.90;67.60
65044;DHT22;51617;48.158;16.464;2023-10-08T08:05:22;22.90;67.50
65044;DHT22;51617;48.158;16.464;2023-10-08T08:07:47;22.80;67.60
65044;DHT22;51617;48.158;16.464;2023-10-08T08:10:15;22.60;67.80
65044;DHT22;51617;48.158;16.464;2023-10-08T08:12:41;22.50;67.90
65044;DHT22;51617;48.158;16.464;2023-10-08T08:15:07;22.60;68.20
65044;DHT22;51617;48.158;16.464;2023-10-08T08:17:42;22.60;68.20
65044;DHT22;51617;48.158;16.464;2023-10-08T08:20:08;22.70;68.20
65044;DHT22;51617;48.158;16.464;2023-10-08T08:22:43;22.70;68.70
65044;DHT22;51617;48.158;16.464;2023-10-08T08:25:15;22.70;69.00
65044;DHT22;51617;48.158;16.464;2023-10-08T08:27:42;22.60;69.10
65044;DHT22;51617;48.158;16.464;2023-10-08T08:30:09;22.60;69.20
65044;DHT22;51617;48.158;16.464;2023-10-08T08:32:36;22.70;69.10
65044;DHT22;51617;48.158;16.464;2023-10-08T08:35:07;22.60;69.50
65044;DHT22;51617;48.158;16.464;2023-10-08T08:37:33;22.50;70.20
65044;DHT22;51617;48.158;16.464;2023-10-08T08:40:04;22.60;70.00
65044;DHT22;51617;48.158;16.464;2023-10-08T08:42:46;22.60;70.40
65044;DHT22;51617;48.158;16.464;2023-10-08T08:45:13;22.50;70.90
65044;DHT22;51617;48.158;16.464;2023-10-08T08:47:39;22.40;71.20
65044;DHT22;51617;48.158;16.464;2023-10-08T08:50:06;22.50;71.20
65044;DHT22;51617;48.158;16.464;2023-10-08T08:52:39;22.30;71.40
65044;DHT22;51617;48.158;16.464;2023-10-08T08:55:05;22.30;72.20
65044;DHT22;51617;48.158;16.464;2023-10-08T08:57:36;22.30;72.70
65044;DHT22;51617;48.158;16.464;2023-10-08T09:00:05;22.20;73.00
65044;DHT22;51617;48.158;16.464;2023-10-08T09:02:39;22.20;73.30
65044;DHT22;51617;48.158;16.464;2023-10-08T09:05:05;22.20;73.30
65044;DHT22;51617;48.158;16.464;2023-10-08T09:10:23;21.60;79.40
65044;DHT22;51617;48.158;16.464;2023-10-08T09:12:58;20.90;81.50
65044;DHT22;51617;48.158;16.464;2023-10-08T09:15:28;20.60;83.20
65044;DHT22;51617;48.158;16.464;2023-10-08T09:17:54;20.30;84.00
65044;DHT22;51617;48.158;16.464;2023-10-08T09:20:20;20.00;85.00
65044;DHT22;51617;48.158;16.464;2023-10-08T09:22:46;19.80;85.90
65044;DHT22;51617;48.158;16.464;2023-10-08T09:25:32;19.50;86.50
65044;DHT22;51617;48.158;16.464;2023-10-08T09:27:58;19.40;87.10
65044;DHT22;51617;48.158;16.464;2023-10-08T09:30:24;19.20;87.60
65044;DHT22;51617;48.158;16.464;2023-10-08T09:32:51;19.20;87.80
65044;DHT22;51617;48.158;16.464;2023-10-08T09:35:17;19.10;88.20
65044;DHT22;51617;48.158;16.464;2023-10-08T09:37:44;19.00;88.00
65044;DHT22;51617;48.158;16.464;2023-10-08T09:40:10;18.80;88.40
65044;DHT22;51617;48.158;16.464;2023-10-08T09:42:37;18.80;89.20
65044;DHT22;51617;48.158;16.464;2023-10-08T09:45:03;18.70;89.50
65044;DHT22;51617;48.158;16.464;2023-10-08T09:47:31;18.60;89.50
65044;DHT22;51617;48.158;16.464;2023-10-08T09:50:02;18.50;90.00
65044;DHT22;51617;48.158;16.464;2023-10-08T09:52:42;18.50;90.20
65044;DHT22;51617;48.158;16.464;2023-10-08T09:55:10;18.30;90.50
65044;DHT22;51617;48.158;16.464;2023-10-08T09:57:36;18.10;90.90
65044;DHT22;51617;48.158;16.464;2023-10-08T10:00:03;18.00;91.10
65044;DHT22;51617;48.158;16.464;2023-10-08T10:02:31;17.80;91.30
65044;DHT22;51617;48.158;16.464;2023-10-08T10:04:57;17.70;91.60
65044;DHT22;51617;48.158;16.464;2023-10-08T10:07:24;17.60;91.60
65044;DHT22;51617;48.158;16.464;2023-10-08T10:09:50;17.60;91.70
65044;DHT22;51617;48.158;16.464;2023-10-08T10:12:19;17.50;91.80
65044;DHT22;51617;48.158;16.464;2023-10-08T10:14:52;17.50;92.00
65044;DHT22;51617;48.158;16.464;2023-10-08T10:17:27;17.40;92.20
65044;DHT22;51617;48.158;16.464;2023-10-08T10:19:56;17.30;92.30
65044;DHT22;51617;48.158;16.464;2023-10-08T10:22:34;17.20;92.40
65044;DHT22;51617;48.158;16.464;2023-10-08T10:25:03;17.20;92.50
65044;DHT22;51617;48.158;16.464;2023-10-08T10:27:58;17.10;92.50
65044;DHT22;51617;48.158;16.464;2023-10-08T10:30:31;17.10;92.60
65044;DHT22;51617;48.158;16.464;2023-10-08T10:33:00;17.00;92.70
65044;DHT22;51617;48.158;16.464;2023-10-08T10:35:25;17.00;92.60
65044;DHT22;51617;48.158;16.464;2023-10-08T10:37:53;17.00;92.70
65044;DHT22;51617;48.158;16.464;2023-10-08T10:40:23;17.00;92.80
65044;DHT22;51617;48.158;16.464;2023-10-08T10:43:04;16.90;92.80
65044;DHT22;51617;48.158;16.464;2023-10-08T10:45:32;16.90;92.90
65044;DHT22;51617;48.158;16.464;2023-10-08T10:48:12;16.90;92.90
65044;DHT22;51617;48.158;16.464;2023-10-08T10:50:47;16.80;93.00
65044;DHT22;51617;48.158;16.464;2023-10-08T10:53:42;16.80;93.00
65044;DHT22;51617;48.158;16.464;2023-10-08T10:56:21;16.70;93.20
65044;DHT22;51617;48.158;16.464;2023-10-08T10:59:00;16.70;93.20
65044;DHT22;51617;48.158;16.464;2023-10-08T11:01:31;16.60;93.50
65044;DHT22;51617;48.158;16.464;2023-10-08T11:04:10;16.60;93.90
65044;DHT22;51617;48.158;16.464;2023-10-08T11:06:44;16.50;93.90
65044;DHT22;51617;48.158;16.464;2023-10-08T11:09:12;16.50;94.20
65044;DHT22;51617;48.158;16.464;2023-10-08T11:11:44;16.40;94.70
65044;DHT22;51617;48.158;16.464;2023-10-08T11:14:13;16.30;94.70
65044;DHT22;51617;48.158;16.464;2023-10-08T11:16:44;16.30;95.10
65044;DHT22;51617;48.158;16.464;2023-10-08T11:19:10;16.30;95.30
65044;DHT22;51617;48.158;16.464;2023-10-08T11:21:48;16.20;95.50
65044;DHT22;51617;48.158;16.464;2023-10-08T11:24:14;16.10;95.70
65044;DHT22;51617;48.158;16.464;2023-10-08T11:26:51;16.10;95.80
65044;DHT22;51617;48.158;16.464;2023-10-08T11:29:32;16.10;95.40
65044;DHT22;51617;48.158;16.464;2023-10-08T11:31:59;16.10;95.00
65044;DHT22;51617;48.158;16.464;2023-10-08T11:34:32;16.00;94.70
65044;DHT22;51617;48.158;16.464;2023-10-08T11:37:04;16.00;95.30
65044;DHT22;51617;48.158;16.464;2023-10-08T11:39:45;15.90;95.10
65044;DHT22;51617;48.158;16.464;2023-10-08T11:42:11;15.90;95.80
65044;DHT22;51617;48.158;16.464;2023-10-08T11:45:06;15.90;95.80
65044;DHT22;51617;48.158;16.464;2023-10-08T11:47:45;15.90;96.10
65044;DHT22;51617;48.158;16.464;2023-10-08T11:50:11;15.90;95.90
65044;DHT22;51617;48.158;16.464;2023-10-08T11:52:42;15.70;95.90
65044;DHT22;51617;48.158;16.464;2023-10-08T11:55:08;15.60;96.00
65044;DHT22;51617;48.158;16.464;2023-10-08T11:57:34;15.60;96.20
65044;DHT22;51617;48.158;16.464;2023-10-08T12:00:03;15.60;95.80
65044;DHT22;51617;48.158;16.464;2023-10-08T12:02:47;15.50;95.60
65044;DHT22;51617;48.158;16.464;2023-10-08T12:05:13;15.40;95.70
65044;DHT22;51617;48.158;16.464;2023-10-08T12:07:45;15.30;96.10
65044;DHT22;51617;48.158;16.464;2023-10-08T12:10:11;15.30;95.80
65044;DHT22;51617;48.158;16.464;2023-10-08T12:12:37;15.30;95.90
65044;DHT22;51617;48.158;16.464;2023-10-08T12:15:02;15.30;95.60
65044;DHT22;51617;48.158;16.464;2023-10-08T12:17:29;15.20;95.10
65044;DHT22;51617;48.158;16.464;2023-10-08T12:20:07;15.10;95.30
65044;DHT22;51617;48.158;16.464;2023-10-08T12:22:50;15.20;95.10
65044;DHT22;51617;48.158;16.464;2023-10-08T12:25:16;15.10;95.00
65044;DHT22;51617;48.158;16.464;2023-10-08T12:27:42;15.10;95.50
65044;DHT22;51617;48.158;16.464;2023-10-08T12:30:07;15.00;95.90
65044;DHT22;51617;48.158;16.464;2023-10-08T12:32:38;15.00;96.30
65044;DHT22;51617;48.158;16.464;2023-10-08T12:35:08;14.80;96.40
65044;DHT22;51617;48.158;16.464;2023-10-08T12:37:40;14.70;96.90
65044;DHT22;51617;48.158;16.464;2023-10-08T12:40:09;14.60;97.50
65044;DHT22;51617;48.158;16.464;2023-10-08T12:42:48;14.50;97.60
65044;DHT22;51617;48.158;16.464;2023-10-08T12:45:13;14.40;97.70
65044;DHT22;51617;48.158;16.464;2023-10-08T12:47:39;14.40;98.10
65044;DHT22;51617;48.158;16.464;2023-10-08T12:50:04;14.40;98.40
65044;DHT22;51617;48.158;16.464;2023-10-08T12:52:33;14.30;98.90
65044;DHT22;51617;48.158;16.464;2023-10-08T12:55:02;14.20;98.80
65044;DHT22;51617;48.158;16.464;2023-10-08T12:57:30;14.10;99.00
65044;DHT22;51617;48.158;16.464;2023-10-08T12:59:58;14.10;99.40
65044;DHT22;51617;48.158;16.464;2023-10-08T13:02:24;14.00;99.40
65044;DHT22;51617;48.158;16.464;2023-10-08T13:04:54;14.10;99.40
65044;DHT22;51617;48.158;16.464;2023-10-08T13:07:25;14.20;99.60
65044;DHT22;51617;48.158;16.464;2023-10-08T13:09:52;14.00;99.50
65044;DHT22;51617;48.158;16.464;2023-10-08T13:12:18;14.10;99.60
65044;DHT22;51617;48.158;16.464;2023-10-08T13:14:44;14.20;99.60
65044;DHT22;51617;48.158;16.464;2023-10-08T13:17:11;14.30;99.00
65044;DHT22;51617;48.158;16.464;2023-10-08T13:19:37;13.60;98.70
65044;DHT22;51617;48.158;16.464;2023-10-08T13:22:03;14.30;98.70
65044;DHT22;51617;48.158;16.464;2023-10-08T13:24:35;14.40;98.60
65044;DHT22;51617;48.158;16.464;2023-10-08T13:27:01;14.50;98.50
65044;DHT22;51617;48.158;16.464;2023-10-08T13:29:27;14.50;98.00
65044;DHT22;51617;48.158;16.464;2023-10-08T13:31:58;14.50;97.10
65044;DHT22;51617;48.158;16.464;2023-10-08T13:34:24;14.50;97.10
65044;DHT22;51617;48.158;16.464;2023-10-08T13:36:52;14.50;96.90
65044;DHT22;51617;48.158;16.464;2023-10-08T13:39:18;14.50;97.10
65044;DHT22;51617;48.158;16.464;2023-10-08T13:41:44;14.50;96.70
65044;DHT22;51617;48.158;16.464;2023-10-08T13:44:14;14.50;96.50
65044;DHT22;51617;48.158;16.464;2023-10-08T13:46:40;14.50;95.50
65044;DHT22;51617;48.158;16.464;2023-10-08T13:49:14;14.40;95.20
65044;DHT22;51617;48.158;16.464;2023-10-08T13:51:42;14.40;95.30
65044;DHT22;51617;48.158;16.464;2023-10-08T13:54:09;14.50;95.20
65044;DHT22;51617;48.158;16.464;2023-10-08T13:56:36;14.50;95.00
65044;DHT22;51617;48.158;16.464;2023-10-08T13:59:13;14.50;94.90
65044;DHT22;51617;48.158;16.464;2023-10-08T14:01:42;14.60;94.70
65044;DHT22;51617;48.158;16.464;2023-10-08T14:04:17;14.60;94.60
65044;DHT22;51617;48.158;16.464;2023-10-08T14:06:45;14.60;94.10
65044;DHT22;51617;48.158;16.464;2023-10-08T14:09:18;14.50;94.30
65044;DHT22;51617;48.158;16.464;2023-10-08T14:11:48;14.50;94.50
65044;DHT22;51617;48.158;16.464;2023-10-08T14:14:18;14.50;94.70
65044;DHT22;51617;48.158;16.464;2023-10-08T14:16:45;14.50;94.50
65044;DHT22;51617;48.158;16.464;2023-10-08T14:19:17;14.40;94.60
65044;DHT22;51617;48.158;16.464;2023-10-08T14:21:46;14.50;94.80
65044;DHT22;51617;48.158;16.464;2023-10-08T14:24:20;14.50;95.00
65044;DHT22;51617;48.158;16.464;2023-10-08T14:26:46;14.50;94.70
65044;DHT22;51617;48.158;16.464;2023-10-08T14:29:17;14.40;95.10
65044;DHT22;51617;48.158;16.464;2023-10-08T14:31:43;14.40;95.20
65044;DHT22;51617;48.158;16.464;2023-10-08T14:34:14;14.30;95.30
65044;DHT22;51617;48.158;16.464;2023-10-08T14:36:47;14.20;95.40
65044;DHT22;51617;48.158;16.464;2023-10-08T14:39:32;14.20;95.50
65044;DHT22;51617;48.158;16.464;2023-10-08T14:42:16;14.30;95.70
65044;DHT22;51617;48.158;16.464;2023-10-08T14:45:01;14.20;95.70
65044;DHT22;51617;48.158;16.464;2023-10-08T14:47:27;14.10;95.90
65044;DHT22;51617;48.158;16.464;2023-10-08T14:49:54;14.10;96.20
65044;DHT22;51617;48.158;16.464;2023-10-08T14:52:20;14.00;96.30
65044;DHT22;51617;48.158;16.464;2023-10-08T14:54:46;14.00;96.30
65044;DHT22;51617;48.158;16.464;2023-10-08T14:57:12;14.00;96.40
65044;DHT22;51617;48.158;16.464;2023-10-08T14:59:40;14.10;96.20
65044;DHT22;51617;48.158;16.464;2023-10-08T15:02:07;14.10;96.00
65044;DHT22;51617;48.158;16.464;2023-10-08T15:04:36;14.10;96.00
65044;DHT22;51617;48.158;16.464;2023-10-08T15:07:06;14.10;95.90
65044;DHT22;51617;48.158;16.464;2023-10-08T15:09:37;14.20;96.10
65044;DHT22;51617;48.158;16.464;2023-10-08T15:12:09;14.20;95.80
65044;DHT22;51617;48.158;16.464;2023-10-08T15:14:36;14.20;95.60
65044;DHT22;51617;48.158;16.464;2023-10-08T15:17:08;14.20;95.40
65044;DHT22;51617;48.158;16.464;2023-10-08T15:19:36;14.20;95.40
65044;DHT22;51617;48.158;16.464;2023-10-08T15:22:09;14.20;95.70
65044;DHT22;51617;48.158;16.464;2023-10-08T15:24:36;14.20;95.80
65044;DHT22;51617;48.158;16.464;2023-10-08T15:27:02;14.20;95.60
65044;DHT22;51617;48.158;16.464;2023-10-08T15:29:30;14.20;95.30
65044;DHT22;51617;48.158;16.464;2023-10-08T15:31:58;14.30;95.40
65044;DHT22;51617;48.158;16.464;2023-10-08T15:34:25;14.30;95.00
65044;DHT22;51617;48.158;16.464;2023-10-08T15:36:52;14.40;95.00
65044;DHT22;51617;48.158;16.464;2023-10-08T15:39:18;14.40;95.00
65044;DHT22;51617;48.158;16.464;2023-10-08T15:41:50;14.40;94.80